createdAt,value
2017-11-25T00:00:21.540Z,36.97
2017-11-25T00:06:25.822Z,33.97
2017-11-25T00:12:29.323Z,38.87
2017-11-25T00:18:33.621Z,44.87
2017-11-25T00:24:38.293Z,51.80
2017-11-25T00:30:41.785Z,43.47
2017-11-25T00:36:45.280Z,46.07
2017-11-25T00:42:48.767Z,40.20
2017-11-25T00:48:52.261Z,35.30
2017-11-25T00:54:55.776Z,30.80
2017-11-25T01:00:59.282Z,29.73
2017-11-25T01:07:02.809Z,31.20
2017-11-25T01:13:06.369Z,42.27
2017-11-25T01:19:09.890Z,45.90
2017-11-25T01:25:13.649Z,51.03
2017-11-25T01:31:17.140Z,43.10
2017-11-25T01:37:20.655Z,47.50
2017-11-25T01:43:24.922Z,56.73
2017-11-25T01:49:28.431Z,48.53
2017-11-25T01:55:33.418Z,49.33
2017-11-25T02:01:36.921Z,43.03
2017-11-25T02:07:40.418Z,49.67
2017-11-25T02:13:43.932Z,41.27
2017-11-25T02:19:48.162Z,44.27
2017-11-25T02:25:51.682Z,53.00
2017-11-25T02:31:55.171Z,43.97
2017-11-25T02:37:58.652Z,50.23
2017-11-25T02:44:02.153Z,50.50
2017-11-25T02:50:06.389Z,50.67
2017-11-25T02:56:09.875Z,43.67
2017-11-25T03:02:13.393Z,47.33
2017-11-25T03:08:16.903Z,56.43
2017-11-25T03:14:21.238Z,77.93
2017-11-25T03:20:24.739Z,53.13
2017-11-25T03:26:28.248Z,46.07
2017-11-25T03:32:31.829Z,44.40
2017-11-25T03:38:35.339Z,46.00
2017-11-25T03:44:38.847Z,42.47
2017-11-25T03:50:43.133Z,39.63
2017-11-25T03:56:46.651Z,42.20
2017-11-25T04:02:50.144Z,33.23
2017-11-25T04:08:53.627Z,45.00
2017-11-25T04:14:57.144Z,52.97
2017-11-25T04:21:00.759Z,35.70
2017-11-25T04:27:04.245Z,47.80
2017-11-25T04:33:07.749Z,40.83
2017-11-25T04:39:12.007Z,47.60
2017-11-25T04:45:15.508Z,41.93
2017-11-25T04:51:19.042Z,35.80
2017-11-25T04:57:22.582Z,39.40
2017-11-25T05:03:26.090Z,35.43
2017-11-25T05:09:29.573Z,41.57
2017-11-25T05:15:33.105Z,31.23
2017-11-25T05:21:36.614Z,27.37
2017-11-25T05:27:40.198Z,30.90
2017-11-25T05:33:43.693Z,25.90
2017-11-25T05:39:47.951Z,25.63
2017-11-25T05:45:51.473Z,23.83
2017-11-25T05:51:54.958Z,25.00
2017-11-25T05:57:58.468Z,24.90
2017-11-25T06:04:01.991Z,25.70
2017-11-25T06:10:07.036Z,31.67
2017-11-25T06:16:10.564Z,30.27
2017-11-25T06:22:14.077Z,29.07
2017-11-25T06:28:17.564Z,27.33
2017-11-25T06:34:21.077Z,29.57
2017-11-25T06:40:24.568Z,36.30
2017-11-25T06:46:28.062Z,42.87
2017-11-25T06:52:31.619Z,57.70
2017-11-25T06:58:35.115Z,38.03
2017-11-25T07:04:38.624Z,40.83
2017-11-25T07:10:42.923Z,31.53
2017-11-25T07:16:46.433Z,18.20
2017-11-25T07:22:49.934Z,17.20
2017-11-25T07:28:53.446Z,18.07
2017-11-25T07:34:56.944Z,16.20
2017-11-25T07:41:00.447Z,19.40
2017-11-25T07:47:04.711Z,15.07
2017-11-25T07:53:08.206Z,7.50
2017-11-25T07:59:11.736Z,6.80
2017-11-25T08:05:15.991Z,5.37
2017-11-25T08:11:19.497Z,4.10
2017-11-25T08:17:23.000Z,5.87
2017-11-25T08:23:27.299Z,2.80
2017-11-25T08:29:31.567Z,3.87
2017-11-25T08:35:35.077Z,3.50
2017-11-25T08:41:39.353Z,3.50
2017-11-25T08:47:42.851Z,5.93
2017-11-25T08:53:47.103Z,3.00
2017-11-25T08:59:50.605Z,3.67
2017-11-25T09:05:54.144Z,4.83
2017-11-25T09:11:58.449Z,6.17
2017-11-25T09:18:03.586Z,9.73
2017-11-25T09:24:07.096Z,8.27
2017-11-25T09:30:10.608Z,2.30
2017-11-25T09:36:14.213Z,2.60
2017-11-25T09:42:17.713Z,2.90
2017-11-25T09:48:21.969Z,3.40
2017-11-25T09:54:25.469Z,2.70
2017-11-25T10:00:28.985Z,2.30
2017-11-25T10:06:33.250Z,3.23
2017-11-25T10:12:36.751Z,2.80
2017-11-25T10:18:40.240Z,3.70
2017-11-25T10:24:43.742Z,3.20
2017-11-25T10:30:48.000Z,2.90
2017-11-25T10:36:51.497Z,2.87
2017-11-25T10:42:55.012Z,2.60
2017-11-25T10:48:59.265Z,3.37
2017-11-25T10:55:03.913Z,9.00
2017-11-25T11:01:07.405Z,7.73
2017-11-25T11:07:11.696Z,23.63
2017-11-25T11:13:15.191Z,8.53
2017-11-25T11:19:19.495Z,14.23
2017-11-25T11:25:23.773Z,6.60
2017-11-25T11:31:27.305Z,11.30
2017-11-25T11:37:30.855Z,25.20
2017-11-25T11:43:34.628Z,21.13
2017-11-25T11:49:38.196Z,28.10
2017-11-25T11:55:41.709Z,5.70
2017-11-25T12:01:45.206Z,7.40
2017-11-25T12:07:48.741Z,11.90
2017-11-25T12:13:52.225Z,11.27
2017-11-25T12:19:55.709Z,6.73
2017-11-25T12:25:59.240Z,6.33
2017-11-25T12:32:02.832Z,10.43
2017-11-25T12:38:06.320Z,8.50
2017-11-25T12:44:10.649Z,14.90
2017-11-25T12:50:14.149Z,5.27
2017-11-25T12:56:17.625Z,16.97
2017-11-25T13:02:21.129Z,5.20
2017-11-25T13:08:24.615Z,10.13
2017-11-25T13:14:28.105Z,11.87
2017-11-25T13:20:31.611Z,9.13
2017-11-25T13:26:35.154Z,10.80
2017-11-25T13:32:38.669Z,50.77
2017-11-25T13:38:42.155Z,13.97
2017-11-25T13:44:45.664Z,7.13
2017-11-25T13:50:49.969Z,13.23
2017-11-25T13:56:54.248Z,8.70
2017-11-25T14:02:57.744Z,9.80
2017-11-25T14:09:01.269Z,12.83
2017-11-25T14:15:04.781Z,6.30
2017-11-25T14:21:08.276Z,3.47
2017-11-25T14:27:11.768Z,16.20
2017-11-25T14:33:15.295Z,9.37
2017-11-25T14:39:19.550Z,9.80
2017-11-25T14:45:23.024Z,10.33
2017-11-25T14:51:26.574Z,10.73
2017-11-25T14:57:30.144Z,13.47
2017-11-25T15:03:34.555Z,16.20
2017-11-25T15:09:38.812Z,12.93
2017-11-25T15:15:42.309Z,24.37
2017-11-25T15:21:45.807Z,16.40
2017-11-25T15:27:50.065Z,13.73
2017-11-25T15:33:53.535Z,13.30
2017-11-25T15:39:57.028Z,12.27
2017-11-25T15:46:00.656Z,12.63
2017-11-25T15:52:04.165Z,18.07
2017-11-25T15:58:08.437Z,18.30
2017-11-25T16:04:11.914Z,20.33
2017-11-25T16:10:15.396Z,19.73
2017-11-25T16:16:18.893Z,13.07
2017-11-25T16:22:22.395Z,12.30
2017-11-25T16:28:26.648Z,13.33
2017-11-25T16:34:30.148Z,10.60
2017-11-25T16:40:33.666Z,23.00
2017-11-25T16:46:37.179Z,29.00
2017-11-25T16:52:40.699Z,19.10
2017-11-25T16:58:44.201Z,21.27
2017-11-25T17:04:47.688Z,14.73
2017-11-25T17:10:51.959Z,17.10
2017-11-25T17:16:55.448Z,15.70
2017-11-25T17:23:00.014Z,17.07
2017-11-25T17:29:04.321Z,29.10
2017-11-25T17:35:08.607Z,14.97
2017-11-25T17:41:12.103Z,21.70
2017-11-25T17:53:45.374Z,24.27
2017-11-25T17:59:49.677Z,21.03
2017-11-25T18:05:53.965Z,36.97
2017-11-25T18:11:58.293Z,22.43
2017-11-25T18:18:01.813Z,26.93
2017-11-25T18:24:05.381Z,24.53
2017-11-25T18:30:08.896Z,24.83
2017-11-25T18:36:12.432Z,29.23
2017-11-25T18:42:15.993Z,28.70
2017-11-25T18:48:19.533Z,30.27
2017-11-25T18:54:23.086Z,21.57
2017-11-25T19:00:26.648Z,25.50
2017-11-25T19:06:30.178Z,42.83
2017-11-25T19:12:33.698Z,38.83
2017-11-25T19:18:37.241Z,36.60
2017-11-25T19:24:40.779Z,35.97
2017-11-25T19:30:44.333Z,38.10
2017-11-25T19:36:47.871Z,36.17
2017-11-25T19:42:52.157Z,35.77
2017-11-25T19:48:55.699Z,30.87
2017-11-25T19:54:59.244Z,30.20
2017-11-25T20:07:13.260Z,28.70
2017-11-25T20:13:18.325Z,33.03
2017-11-25T20:19:21.917Z,31.73
2017-11-25T20:25:25.475Z,43.13
2017-11-25T20:31:29.790Z,35.17
2017-11-25T20:37:34.176Z,28.20
2017-11-25T20:43:37.723Z,28.10
2017-11-25T20:49:41.284Z,27.27
2017-11-25T20:55:48.085Z,29.03
2017-11-25T21:01:52.345Z,30.27
2017-11-25T21:07:55.902Z,29.93
2017-11-25T21:14:00.229Z,43.13
2017-11-25T21:20:03.779Z,33.70
2017-11-25T21:26:07.305Z,33.30
2017-11-25T21:32:10.860Z,42.53
2017-11-25T21:38:15.173Z,34.80
2017-11-25T21:44:19.479Z,27.77
2017-11-25T21:50:23.813Z,32.13
2017-11-25T21:56:27.348Z,42.00
2017-11-25T22:02:30.925Z,35.13
2017-11-25T22:08:34.455Z,60.93
2017-11-25T22:14:38.019Z,35.93
2017-11-25T22:20:42.340Z,33.00
2017-11-25T22:26:45.886Z,42.83
2017-11-25T22:32:49.416Z,30.93
2017-11-25T22:38:52.936Z,28.10
2017-11-25T22:44:56.477Z,24.47
2017-11-25T22:51:00.059Z,28.83
2017-11-25T22:57:04.356Z,25.47
2017-11-25T23:03:08.634Z,27.40
2017-11-25T23:09:12.173Z,28.00
2017-11-25T23:15:15.762Z,24.50
2017-11-25T23:21:19.333Z,28.03
2017-11-25T23:27:22.901Z,26.67
2017-11-25T23:33:27.202Z,29.17
2017-11-25T23:39:31.493Z,23.70
2017-11-25T23:45:35.012Z,29.83
2017-11-25T23:51:38.553Z,26.90
2017-11-25T23:57:42.110Z,28.67
